createdAt,value
2019-05-29T00:01:44.482Z,80.94
2019-05-29T00:04:14.571Z,80.62
2019-05-29T00:06:44.540Z,79.65
2019-05-29T00:09:14.470Z,79.36
2019-05-29T00:11:44.356Z,80.12
2019-05-29T00:14:22.908Z,80.22
2019-05-29T00:16:45.812Z,80.25
2019-05-29T00:19:15.723Z,80.37
2019-05-29T00:21:45.640Z,79.70
2019-05-29T00:24:15.529Z,79.93
2019-05-29T00:26:45.425Z,81.03
2019-05-29T00:29:15.492Z,80.38
2019-05-29T00:31:45.556Z,79.85
2019-05-29T00:34:15.512Z,79.89
2019-05-29T00:36:45.406Z,80.41
2019-05-29T00:39:15.431Z,80.83
2019-05-29T00:41:45.332Z,81.10
2019-05-29T00:44:15.463Z,80.89
2019-05-29T00:46:45.491Z,81.57
2019-05-29T00:49:16.004Z,81.96
2019-05-29T00:51:45.947Z,81.95
2019-05-29T00:54:16.535Z,82.47
2019-05-29T00:56:46.535Z,82.13
2019-05-29T00:59:17.420Z,81.00
2019-05-29T01:01:47.532Z,80.63
2019-05-29T01:04:17.905Z,80.65
2019-05-29T01:06:48.850Z,81.96
2019-05-29T01:09:18.764Z,82.37
2019-05-29T01:11:48.652Z,81.82
2019-05-29T01:14:19.403Z,81.39
2019-05-29T01:16:49.348Z,80.73
2019-05-29T01:19:25.256Z,80.85
2019-05-29T01:21:56.367Z,80.75
2019-05-29T01:24:27.024Z,79.91
2019-05-29T01:26:56.916Z,80.09
2019-05-29T01:29:26.826Z,79.70
2019-05-29T01:31:56.629Z,80.47
2019-05-29T01:34:26.464Z,80.70
2019-05-29T01:36:56.286Z,79.99
2019-05-29T01:39:26.178Z,80.29
2019-05-29T01:41:56.064Z,79.95
2019-05-29T01:44:26.054Z,80.85
2019-05-29T01:46:55.954Z,81.63
2019-05-29T01:49:25.934Z,81.07
2019-05-29T01:51:55.759Z,81.34
2019-05-29T01:54:25.748Z,81.77
2019-05-29T01:56:55.645Z,82.09
2019-05-29T01:59:25.492Z,81.77
2019-05-29T02:01:55.317Z,81.12
2019-05-29T02:04:25.123Z,81.86
2019-05-29T02:06:55.080Z,80.68
2019-05-29T02:09:24.971Z,80.79
2019-05-29T02:11:54.792Z,80.48
2019-05-29T02:14:26.870Z,81.07
2019-05-29T02:16:56.843Z,80.77
2019-05-29T02:19:26.745Z,83.01
2019-05-29T02:21:56.563Z,81.98
2019-05-29T02:24:27.437Z,83.58
2019-05-29T02:26:58.519Z,84.37
2019-05-29T02:29:28.419Z,85.00
2019-05-29T02:31:58.333Z,83.58
2019-05-29T02:34:29.910Z,83.97
2019-05-29T02:37:00.095Z,82.97
2019-05-29T02:39:30.078Z,83.17
2019-05-29T02:41:59.988Z,83.79
2019-05-29T02:44:29.890Z,82.84
2019-05-29T02:47:00.875Z,83.71
2019-05-29T02:49:30.775Z,83.93
2019-05-29T02:52:01.684Z,84.08
2019-05-29T02:54:32.429Z,82.01
2019-05-29T02:57:02.496Z,81.53
2019-05-29T02:59:32.490Z,81.79
2019-05-29T03:02:02.587Z,83.16
2019-05-29T03:04:33.173Z,84.05
2019-05-29T03:07:04.493Z,83.37
2019-05-29T03:09:34.588Z,82.73
2019-05-29T03:12:04.585Z,80.45
2019-05-29T03:14:34.904Z,80.97
2019-05-29T03:17:05.244Z,80.26
2019-05-29T03:19:35.157Z,80.67
2019-05-29T03:22:05.203Z,80.90
2019-05-29T03:24:35.310Z,82.47
2019-05-29T03:27:05.480Z,81.64
2019-05-29T03:29:35.344Z,82.40
2019-05-29T03:32:05.317Z,82.83
2019-05-29T03:34:42.288Z,84.04
2019-05-29T03:37:06.755Z,84.67
2019-05-29T03:39:36.660Z,84.24
2019-05-29T03:42:06.630Z,82.73
2019-05-29T03:44:36.601Z,82.57
2019-05-29T03:47:06.617Z,82.58
2019-05-29T03:49:37.421Z,83.23
2019-05-29T03:52:07.432Z,83.41
2019-05-29T03:54:38.758Z,84.37
2019-05-29T03:57:08.894Z,84.67
2019-05-29T03:59:38.792Z,83.70
2019-05-29T04:02:08.924Z,83.67
2019-05-29T04:04:39.789Z,84.66
2019-05-29T04:07:09.685Z,83.86
2019-05-29T04:09:39.575Z,84.55
2019-05-29T04:12:09.497Z,84.19
2019-05-29T04:14:39.503Z,84.15
2019-05-29T04:17:10.677Z,84.95
2019-05-29T04:19:40.769Z,84.43
2019-05-29T04:22:11.180Z,84.10
2019-05-29T04:24:41.570Z,84.50
2019-05-29T04:27:13.925Z,83.65
2019-05-29T04:29:45.449Z,82.21
2019-05-29T04:32:15.428Z,82.70
2019-05-29T04:34:45.371Z,82.10
2019-05-29T04:37:15.188Z,83.35
2019-05-29T04:39:45.164Z,85.87
2019-05-29T04:42:16.131Z,85.57
2019-05-29T04:44:45.955Z,83.60
2019-05-29T04:47:16.859Z,84.62
2019-05-29T04:49:46.750Z,85.46
2019-05-29T04:52:16.569Z,84.95
2019-05-29T04:54:46.682Z,83.94
2019-05-29T04:57:16.576Z,82.77
2019-05-29T04:59:46.404Z,83.75
2019-05-29T05:02:16.280Z,83.95
2019-05-29T05:04:46.083Z,84.16
2019-05-29T05:07:15.918Z,84.45
2019-05-29T05:09:45.892Z,85.14
2019-05-29T05:12:15.708Z,84.96
2019-05-29T05:14:45.672Z,84.74
2019-05-29T05:17:25.800Z,83.72
2019-05-29T05:19:47.294Z,82.25
2019-05-29T05:22:17.318Z,81.27
2019-05-29T05:24:47.103Z,82.38
2019-05-29T05:27:17.311Z,81.70
2019-05-29T05:29:47.288Z,82.84
2019-05-29T05:32:17.115Z,82.00
2019-05-29T05:34:47.039Z,81.23
2019-05-29T05:37:16.915Z,80.30
2019-05-29T05:39:46.794Z,80.61
2019-05-29T05:42:16.684Z,82.27
2019-05-29T05:44:46.621Z,83.18
2019-05-29T05:47:16.531Z,82.92
2019-05-29T05:49:46.351Z,83.04
2019-05-29T05:52:16.179Z,80.18
2019-05-29T05:54:46.084Z,79.13
2019-05-29T05:57:15.974Z,78.80
2019-05-29T05:59:45.877Z,78.96
2019-05-29T06:02:15.840Z,79.75
2019-05-29T06:04:45.763Z,80.71
2019-05-29T06:07:15.580Z,81.68
2019-05-29T06:09:45.403Z,80.79
2019-05-29T06:12:15.299Z,78.50
2019-05-29T06:14:45.191Z,79.18
2019-05-29T06:17:16.240Z,78.60
2019-05-29T06:19:46.126Z,78.79
2019-05-29T06:22:15.938Z,77.80
2019-05-29T06:24:45.799Z,78.16
2019-05-29T06:27:15.762Z,77.09
2019-05-29T06:29:45.584Z,77.28
2019-05-29T06:32:15.509Z,77.01
2019-05-29T06:34:45.334Z,76.36
2019-05-29T06:37:15.220Z,75.29
2019-05-29T06:39:45.129Z,76.33
2019-05-29T06:42:15.098Z,76.43
2019-05-29T06:44:48.586Z,76.05
2019-05-29T06:47:17.960Z,74.15
2019-05-29T06:49:47.771Z,75.61
2019-05-29T06:52:17.687Z,74.66
2019-05-29T06:54:48.177Z,72.96
2019-05-29T06:57:18.223Z,72.17
2019-05-29T06:59:48.941Z,70.14
2019-05-29T07:02:19.034Z,70.50
2019-05-29T07:04:48.934Z,71.60
2019-05-29T07:07:18.929Z,69.72
2019-05-29T07:09:48.815Z,71.13
2019-05-29T07:12:18.729Z,72.26
2019-05-29T07:14:49.608Z,73.39
2019-05-29T07:17:19.418Z,74.34
2019-05-29T07:20:02.878Z,73.87
2019-05-29T07:22:20.822Z,73.26
2019-05-29T07:24:50.748Z,74.17
2019-05-29T07:27:20.662Z,73.33
2019-05-29T07:29:50.486Z,72.23
2019-05-29T07:32:20.311Z,72.10
2019-05-29T07:35:02.809Z,73.21
2019-05-29T07:37:21.757Z,71.65
2019-05-29T07:39:51.582Z,69.84
2019-05-29T07:42:21.409Z,70.20
2019-05-29T07:44:51.368Z,68.75
2019-05-29T07:47:21.408Z,70.91
2019-05-29T07:49:51.229Z,68.49
2019-05-29T07:52:21.139Z,67.79
2019-05-29T07:54:51.046Z,67.61
2019-05-29T07:57:20.941Z,69.38
2019-05-29T07:59:50.827Z,69.75
2019-05-29T08:02:20.758Z,69.38
2019-05-29T08:04:50.574Z,69.26
2019-05-29T08:07:20.643Z,67.98
2019-05-29T08:09:50.598Z,67.98
2019-05-29T08:12:20.581Z,69.21
2019-05-29T08:14:50.543Z,68.82
2019-05-29T08:17:20.526Z,68.81
2019-05-29T08:20:03.154Z,69.70
2019-05-29T08:22:33.740Z,68.84
2019-05-29T08:24:53.605Z,68.52
2019-05-29T08:27:23.590Z,68.18
2019-05-29T08:29:53.605Z,68.58
2019-05-29T08:32:23.509Z,67.32
2019-05-29T08:34:53.373Z,65.21
2019-05-29T08:37:23.202Z,66.31
2019-05-29T08:39:53.104Z,65.52
2019-05-29T08:42:23.918Z,65.65
2019-05-29T08:44:54.082Z,66.06
2019-05-29T08:47:23.909Z,64.85
2019-05-29T08:49:54.630Z,64.43
2019-05-29T08:52:24.800Z,63.91
2019-05-29T08:54:54.691Z,63.30
2019-05-29T08:57:24.605Z,64.97
2019-05-29T08:59:54.451Z,64.24
2019-05-29T09:02:24.375Z,62.78
2019-05-29T09:04:55.263Z,62.90
2019-05-29T09:07:25.089Z,63.67
2019-05-29T09:09:54.923Z,60.79
2019-05-29T09:12:24.901Z,59.98
2019-05-29T09:14:54.795Z,58.73
2019-05-29T09:17:24.701Z,61.96
2019-05-29T09:19:54.662Z,62.11
2019-05-29T09:22:24.590Z,61.61
2019-05-29T09:24:54.552Z,60.73
2019-05-29T09:27:24.952Z,60.27
2019-05-29T09:29:54.939Z,59.57
2019-05-29T09:32:48.888Z,60.05
2019-05-29T09:34:57.477Z,56.60
2019-05-29T09:37:27.484Z,57.76
2019-05-29T09:39:57.511Z,58.60
2019-05-29T09:42:27.417Z,56.75
2019-05-29T09:44:57.300Z,56.03
2019-05-29T09:47:27.200Z,56.05
2019-05-29T09:49:57.063Z,57.29
2019-05-29T09:52:30.422Z,56.73
2019-05-29T09:54:58.644Z,55.17
2019-05-29T09:57:28.554Z,57.48
2019-05-29T09:59:59.869Z,57.64
2019-05-29T10:02:29.990Z,58.25
2019-05-29T10:05:01.023Z,57.30
2019-05-29T10:07:31.621Z,56.79
2019-05-29T10:10:03.667Z,59.53
2019-05-29T10:12:33.156Z,60.25
2019-05-29T10:15:04.341Z,62.51
2019-05-29T10:17:34.351Z,58.41
2019-05-29T10:20:05.078Z,59.13
2019-05-29T10:22:35.140Z,57.89
2019-05-29T10:25:05.946Z,57.46
2019-05-29T10:27:35.844Z,54.18
2019-05-29T10:30:07.839Z,54.12
2019-05-29T10:32:37.809Z,53.55
2019-05-29T10:35:07.778Z,54.59
2019-05-29T10:37:37.685Z,54.71
2019-05-29T10:40:08.199Z,57.96
2019-05-29T10:42:38.156Z,56.21
2019-05-29T10:45:09.082Z,56.03
2019-05-29T10:47:39.051Z,59.88
2019-05-29T10:50:09.385Z,60.81
2019-05-29T10:52:39.321Z,61.11
2019-05-29T10:55:09.903Z,61.79
2019-05-29T10:57:40.769Z,62.02
2019-05-29T11:00:11.357Z,62.92
2019-05-29T11:02:41.272Z,62.30
2019-05-29T11:05:11.252Z,64.60
2019-05-29T11:07:41.144Z,64.87
2019-05-29T11:10:13.609Z,67.88
2019-05-29T11:12:43.481Z,65.08
2019-05-29T11:15:21.339Z,64.77
2019-05-29T11:17:47.169Z,61.44
2019-05-29T11:20:20.196Z,59.90
2019-05-29T11:22:50.078Z,60.32
2019-05-29T11:25:26.513Z,57.76
2019-05-29T11:27:53.328Z,57.83
2019-05-29T11:30:24.487Z,57.12
2019-05-29T11:32:56.541Z,57.59
2019-05-29T11:35:25.919Z,54.99
2019-05-29T11:37:56.592Z,52.05
2019-05-29T11:40:27.514Z,52.04
2019-05-29T11:42:57.383Z,52.70
2019-05-29T11:45:27.224Z,50.80
2019-05-29T11:47:59.159Z,50.88
2019-05-29T11:50:28.700Z,50.25
2019-05-29T11:52:58.651Z,49.84
2019-05-29T11:55:28.617Z,48.08
2019-05-29T11:57:59.779Z,47.11
2019-05-29T12:00:30.634Z,47.17
2019-05-29T12:03:01.707Z,48.15
2019-05-29T12:05:31.731Z,49.18
2019-05-29T12:08:01.954Z,49.41
2019-05-29T12:10:31.957Z,46.92
2019-05-29T12:13:01.840Z,48.74
2019-05-29T12:15:31.787Z,48.93
2019-05-29T12:18:22.205Z,51.21
2019-05-29T12:20:33.368Z,50.78
2019-05-29T12:23:26.258Z,50.05
2019-05-29T12:25:34.864Z,47.92
2019-05-29T12:28:05.047Z,50.25
2019-05-29T12:30:35.212Z,48.61
2019-05-29T12:33:05.520Z,49.25
2019-05-29T12:35:35.403Z,50.94
2019-05-29T12:38:05.495Z,52.18
2019-05-29T12:40:35.763Z,51.91
2019-05-29T12:43:05.826Z,50.83
2019-05-29T12:45:35.792Z,51.31
2019-05-29T12:48:12.522Z,51.02
2019-05-29T12:50:37.862Z,49.64
2019-05-29T12:53:07.823Z,48.42
2019-05-29T12:55:37.815Z,47.68
2019-05-29T12:58:07.915Z,48.04
2019-05-29T13:00:37.876Z,49.28
2019-05-29T13:03:07.862Z,50.10
2019-05-29T13:05:37.750Z,50.21
2019-05-29T13:08:07.720Z,52.92
2019-05-29T13:10:37.698Z,58.08
2019-05-29T13:13:11.099Z,59.80
2019-05-29T13:15:39.252Z,61.08
2019-05-29T13:18:10.163Z,62.41
2019-05-29T13:20:40.398Z,62.93
2019-05-29T13:23:10.241Z,62.50
2019-05-29T13:25:40.159Z,62.53
2019-05-29T13:28:10.214Z,61.69
2019-05-29T13:30:40.313Z,61.90
2019-05-29T13:33:10.341Z,62.28
2019-05-29T13:35:40.399Z,62.64
2019-05-29T13:38:10.242Z,64.20
2019-05-29T13:40:40.125Z,64.06
2019-05-29T13:43:14.874Z,63.22
2019-05-29T13:45:41.742Z,62.56
2019-05-29T13:48:11.544Z,62.28
2019-05-29T13:50:41.428Z,60.91
2019-05-29T13:53:11.404Z,59.86
2019-05-29T13:55:41.291Z,58.38
2019-05-29T13:58:11.253Z,57.78
2019-05-29T14:00:41.235Z,56.02
2019-05-29T14:03:11.184Z,56.00
2019-05-29T14:05:41.172Z,55.30
2019-05-29T14:08:11.093Z,54.90
2019-05-29T14:10:41.059Z,54.56
2019-05-29T14:13:10.865Z,55.87
2019-05-29T14:15:40.764Z,57.23
2019-05-29T14:18:10.664Z,58.40
2019-05-29T14:20:40.631Z,60.48
2019-05-29T14:23:11.821Z,61.46
2019-05-29T14:25:41.819Z,64.08
2019-05-29T14:28:13.508Z,65.04
2019-05-29T14:30:43.553Z,63.96
2019-05-29T14:33:15.216Z,64.59
2019-05-29T14:35:45.329Z,67.13
2019-05-29T14:38:15.412Z,65.16
2019-05-29T14:40:45.429Z,66.62
2019-05-29T14:43:15.776Z,64.53
2019-05-29T14:45:45.733Z,64.27
2019-05-29T14:48:15.645Z,63.65
2019-05-29T14:50:45.446Z,64.12
2019-05-29T14:53:15.356Z,64.85
2019-05-29T14:55:45.319Z,64.10
2019-05-29T14:58:15.229Z,64.37
2019-05-29T15:00:45.213Z,63.27
2019-05-29T15:03:15.122Z,61.18
2019-05-29T15:05:45.036Z,60.08
2019-05-29T15:08:14.933Z,60.83
2019-05-29T15:10:44.894Z,58.80
2019-05-29T15:13:15.441Z,57.93
2019-05-29T15:15:45.589Z,59.12
2019-05-29T15:18:18.658Z,59.42
2019-05-29T15:20:46.999Z,57.75
2019-05-29T15:23:16.976Z,57.83
2019-05-29T15:25:46.796Z,58.77
2019-05-29T15:28:18.016Z,56.66
2019-05-29T15:30:49.061Z,57.55
2019-05-29T15:33:19.029Z,57.23
2019-05-29T15:35:49.118Z,58.60
2019-05-29T15:38:19.085Z,58.07
2019-05-29T15:40:48.988Z,58.71
2019-05-29T15:43:18.775Z,58.33
2019-05-29T15:45:48.695Z,57.61
2019-05-29T15:48:18.656Z,57.50
2019-05-29T15:50:48.556Z,57.31
2019-05-29T15:53:18.566Z,57.21
2019-05-29T15:55:48.374Z,57.23
2019-05-29T15:58:18.197Z,56.86
2019-05-29T16:00:48.578Z,56.94
2019-05-29T16:03:18.587Z,55.92
2019-05-29T16:05:48.388Z,54.01
2019-05-29T16:08:18.444Z,54.53
2019-05-29T16:10:48.360Z,57.04
2019-05-29T16:13:19.063Z,57.07
2019-05-29T16:15:49.219Z,57.99
2019-05-29T16:18:27.330Z,58.01
2019-05-29T16:20:50.797Z,58.05
2019-05-29T16:23:32.327Z,59.17
2019-05-29T16:25:52.201Z,57.24
2019-05-29T16:28:22.183Z,58.31
2019-05-29T16:30:52.140Z,58.87
2019-05-29T16:33:23.309Z,60.22
2019-05-29T16:35:53.317Z,61.47
2019-05-29T16:38:23.193Z,61.14
2019-05-29T16:40:53.095Z,61.75
2019-05-29T16:43:23.078Z,62.74
2019-05-29T16:45:52.952Z,62.54
2019-05-29T16:48:22.984Z,63.31
2019-05-29T16:50:52.923Z,62.82
2019-05-29T16:53:23.383Z,63.21
2019-05-29T16:55:54.436Z,63.58
2019-05-29T16:58:24.759Z,63.99
2019-05-29T17:00:54.662Z,63.96
2019-05-29T17:03:25.145Z,65.54
2019-05-29T17:05:55.112Z,64.76
2019-05-29T17:08:24.936Z,65.40
2019-05-29T17:10:54.834Z,66.93
2019-05-29T17:13:25.077Z,67.82
2019-05-29T17:15:55.035Z,67.98
2019-05-29T17:18:25.155Z,68.54
2019-05-29T17:20:55.171Z,68.44
2019-05-29T17:23:25.269Z,68.18
2019-05-29T17:26:09.532Z,68.26
2019-05-29T17:28:28.400Z,68.03
2019-05-29T17:31:02.198Z,68.76
2019-05-29T17:33:31.072Z,69.09
2019-05-29T17:36:00.968Z,69.32
2019-05-29T17:38:32.390Z,69.31
2019-05-29T17:41:02.281Z,69.58
2019-05-29T17:43:32.272Z,69.60
2019-05-29T17:46:02.170Z,68.73
2019-05-29T17:48:32.076Z,69.10
2019-05-29T17:51:01.978Z,67.86
2019-05-29T17:53:31.803Z,67.69
2019-05-29T17:56:01.768Z,66.98
2019-05-29T17:58:31.763Z,66.93
2019-05-29T18:01:01.737Z,67.12
2019-05-29T18:03:32.096Z,67.59
2019-05-29T18:06:01.987Z,68.68
2019-05-29T18:08:32.705Z,68.11
2019-05-29T18:11:02.687Z,68.79
2019-05-29T18:13:33.599Z,68.45
2019-05-29T18:16:03.485Z,69.63
2019-05-29T18:18:33.329Z,69.31
2019-05-29T18:21:03.349Z,69.38
2019-05-29T18:23:33.324Z,68.91
2019-05-29T18:26:03.333Z,69.93
2019-05-29T18:28:34.288Z,69.39
2019-05-29T18:31:04.255Z,69.21
2019-05-29T18:33:34.097Z,69.55
2019-05-29T18:36:04.014Z,69.65
2019-05-29T18:38:35.085Z,69.76
2019-05-29T18:41:05.268Z,69.20
2019-05-29T18:43:35.243Z,70.79
2019-05-29T18:46:05.210Z,70.19
2019-05-29T18:48:35.015Z,70.74
2019-05-29T18:51:04.992Z,69.88
2019-05-29T18:53:34.872Z,69.34
2019-05-29T18:56:05.045Z,70.01
2019-05-29T18:58:34.950Z,69.18
2019-05-29T19:01:05.376Z,69.62
2019-05-29T19:03:35.783Z,70.19
2019-05-29T19:06:05.772Z,70.56
2019-05-29T19:08:35.736Z,72.88
2019-05-29T19:11:05.809Z,73.44
2019-05-29T19:13:35.624Z,74.67
2019-05-29T19:16:05.604Z,75.06
2019-05-29T19:18:35.571Z,75.45
2019-05-29T19:21:06.530Z,75.73
2019-05-29T19:23:36.361Z,76.89
2019-05-29T19:26:06.353Z,76.95
2019-05-29T19:28:36.245Z,77.00
2019-05-29T19:31:06.235Z,77.17
2019-05-29T19:33:36.513Z,77.00
2019-05-29T19:36:06.550Z,77.17
2019-05-29T19:38:36.457Z,76.47
2019-05-29T19:41:06.353Z,76.31
2019-05-29T19:43:36.313Z,76.17
2019-05-29T19:46:06.384Z,76.87
2019-05-29T19:48:36.208Z,76.62
2019-05-29T19:51:06.194Z,76.65
2019-05-29T19:53:36.031Z,75.98
2019-05-29T19:56:07.076Z,76.75
2019-05-29T19:58:37.048Z,76.24
2019-05-29T20:01:07.067Z,76.03
2019-05-29T20:03:37.513Z,76.82
2019-05-29T20:06:08.468Z,76.44
2019-05-29T20:08:39.678Z,76.75
2019-05-29T20:11:09.819Z,76.62
2019-05-29T20:13:39.647Z,76.60
2019-05-29T20:16:09.691Z,77.40
2019-05-29T20:18:39.656Z,78.22
2019-05-29T20:21:10.573Z,78.74
2019-05-29T20:23:40.543Z,78.42
2019-05-29T20:26:10.513Z,78.13
2019-05-29T20:28:40.424Z,78.22
2019-05-29T20:31:12.058Z,78.49
2019-05-29T20:33:42.850Z,79.01
2019-05-29T20:36:12.793Z,78.07
2019-05-29T20:38:42.690Z,76.90
2019-05-29T20:41:12.608Z,76.97
2019-05-29T20:43:42.560Z,77.42
2019-05-29T20:46:12.378Z,77.73
2019-05-29T20:48:42.970Z,77.52
2019-05-29T20:51:14.003Z,76.76
2019-05-29T20:53:43.839Z,77.38
2019-05-29T20:56:13.828Z,78.45
2019-05-29T20:58:43.896Z,79.29
2019-05-29T21:01:13.755Z,79.87
2019-05-29T21:03:43.957Z,78.83
2019-05-29T21:06:13.850Z,77.46
2019-05-29T21:08:44.045Z,76.96
2019-05-29T21:11:14.033Z,76.78
2019-05-29T21:13:43.942Z,77.18
2019-05-29T21:16:14.908Z,76.96
2019-05-29T21:18:44.805Z,76.57
2019-05-29T21:21:14.653Z,76.51
2019-05-29T21:23:44.741Z,77.84
2019-05-29T21:26:14.735Z,78.70
2019-05-29T21:28:49.846Z,80.36
2019-05-29T21:31:16.247Z,80.08
2019-05-29T21:33:49.216Z,78.77
2019-05-29T21:36:18.726Z,77.99
2019-05-29T21:38:48.695Z,77.37
2019-05-29T21:41:18.605Z,77.00
2019-05-29T21:43:48.577Z,77.01
2019-05-29T21:46:18.470Z,77.15
2019-05-29T21:48:48.357Z,76.29
2019-05-29T21:51:18.261Z,76.50
2019-05-29T21:53:48.181Z,76.67
2019-05-29T21:56:18.072Z,77.48
2019-05-29T21:58:59.929Z,76.69
2019-05-29T22:01:19.708Z,77.36
2019-05-29T22:03:50.188Z,76.76
2019-05-29T22:06:20.173Z,77.54
2019-05-29T22:08:50.072Z,77.12
2019-05-29T22:11:20.060Z,77.37
2019-05-29T22:13:50.295Z,77.28
2019-05-29T22:16:20.323Z,77.50
2019-05-29T22:18:50.747Z,77.52
2019-05-29T22:21:20.868Z,77.74
2019-05-29T22:23:50.994Z,77.86
2019-05-29T22:26:21.198Z,77.54
2019-05-29T22:28:51.205Z,77.50
2019-05-29T22:31:21.164Z,76.96
2019-05-29T22:33:51.427Z,76.65
2019-05-29T22:36:21.481Z,76.62
2019-05-29T22:38:51.468Z,77.31
2019-05-29T22:41:21.436Z,77.44
2019-05-29T22:43:51.537Z,77.63
2019-05-29T22:46:21.606Z,77.52
2019-05-29T22:48:51.681Z,77.50
2019-05-29T22:51:21.725Z,77.50
2019-05-29T22:53:52.498Z,77.53
2019-05-29T22:56:23.242Z,77.77
2019-05-29T22:58:54.010Z,78.16
2019-05-29T23:01:24.006Z,77.86
2019-05-29T23:03:54.256Z,77.75
2019-05-29T23:06:25.346Z,79.28
2019-05-29T23:08:56.252Z,80.86
2019-05-29T23:11:26.292Z,82.12
2019-05-29T23:13:56.239Z,82.04
2019-05-29T23:16:26.959Z,81.54
2019-05-29T23:18:56.848Z,81.19
2019-05-29T23:21:26.821Z,82.97
2019-05-29T23:23:57.525Z,82.74
2019-05-29T23:26:27.480Z,83.25
2019-05-29T23:28:57.299Z,83.64
2019-05-29T23:31:27.107Z,82.59
2019-05-29T23:33:57.028Z,81.55
2019-05-29T23:36:26.836Z,80.68
2019-05-29T23:38:57.184Z,81.74
2019-05-29T23:41:27.224Z,80.82
2019-05-29T23:43:57.418Z,80.57
2019-05-29T23:46:27.335Z,80.25
2019-05-29T23:48:57.570Z,79.78
2019-05-29T23:51:27.596Z,79.92
2019-05-29T23:53:57.748Z,79.61
2019-05-29T23:56:28.941Z,79.33
2019-05-29T23:58:59.821Z,79.08
